createdAt,value
2018-02-16T00:02:23.107Z,101211.47
2018-02-16T00:04:51.468Z,101214.62
2018-02-16T00:07:19.860Z,101217.47
2018-02-16T00:09:48.230Z,101216.91
2018-02-16T00:12:15.874Z,101218.57
2018-02-16T00:14:44.390Z,101217.10
2018-02-16T00:17:12.522Z,101214.55
2018-02-16T00:19:41.030Z,101223.20
2018-02-16T00:22:09.414Z,101218.62
2018-02-16T00:24:37.035Z,101228.24
2018-02-16T00:27:05.560Z,101232.44
2018-02-16T00:29:33.918Z,101234.19
2018-02-16T00:32:01.495Z,101232.38
2018-02-16T00:34:29.923Z,101236.09
2018-02-16T00:36:58.389Z,101237.83
2018-02-16T00:39:27.002Z,101237.69
2018-02-16T00:41:55.348Z,101239.98
2018-02-16T00:44:23.754Z,101242.58
2018-02-16T00:46:51.334Z,101247.52
2018-02-16T00:49:18.920Z,101255.62
2018-02-16T00:51:47.274Z,101251.52
2018-02-16T00:54:15.637Z,101248.52
2018-02-16T00:56:44.117Z,101265.51
2018-02-16T00:59:12.640Z,101259.56
2018-02-16T01:01:40.998Z,101270.52
2018-02-16T01:04:08.620Z,101275.26
2018-02-16T01:06:37.138Z,101270.98
2018-02-16T01:09:04.761Z,101266.03
2018-02-16T01:11:33.181Z,101270.66
2018-02-16T01:14:01.526Z,101273.33
2018-02-16T01:16:29.103Z,101269.15
2018-02-16T01:18:56.677Z,101281.19
2018-02-16T01:21:24.287Z,101284.90
2018-02-16T01:23:51.938Z,101276.66
2018-02-16T01:26:20.270Z,101278.84
2018-02-16T01:28:47.846Z,101281.34
2018-02-16T01:31:16.399Z,101284.88
2018-02-16T01:33:43.980Z,101278.69
2018-02-16T01:36:12.392Z,101276.52
2018-02-16T01:38:40.005Z,101275.09
2018-02-16T01:41:07.589Z,101278.88
2018-02-16T01:43:35.207Z,101281.00
2018-02-16T01:46:03.621Z,101278.80
2018-02-16T01:48:31.243Z,101287.01
2018-02-16T01:50:58.818Z,101285.20
2018-02-16T01:53:27.311Z,101283.16
2018-02-16T01:55:55.703Z,101283.06
2018-02-16T01:58:24.076Z,101284.83
2018-02-16T02:00:51.654Z,101287.54
2018-02-16T02:03:19.967Z,101295.02
2018-02-16T02:05:48.338Z,101288.08
2018-02-16T02:08:15.916Z,101286.50
2018-02-16T02:10:44.328Z,101286.67
2018-02-16T02:13:11.907Z,101300.20
2018-02-16T02:15:40.226Z,101311.00
2018-02-16T02:18:07.806Z,101323.56
2018-02-16T02:20:36.336Z,101317.21
2018-02-16T02:23:04.719Z,101320.03
2018-02-16T02:25:32.294Z,101320.65
2018-02-16T02:27:59.914Z,101334.02
2018-02-16T02:30:27.499Z,101335.37
2018-02-16T02:32:55.083Z,101346.68
2018-02-16T02:35:22.697Z,101341.26
2018-02-16T02:37:50.277Z,101342.13
2018-02-16T02:40:17.855Z,101344.42
2018-02-16T02:42:45.454Z,101346.66
2018-02-16T02:45:13.778Z,101348.59
2018-02-16T02:47:41.356Z,101350.33
2018-02-16T02:50:08.935Z,101352.42
2018-02-16T02:52:36.551Z,101364.59
2018-02-16T02:55:04.133Z,101365.70
2018-02-16T02:57:31.715Z,101373.39
2018-02-16T02:59:59.295Z,101381.66
2018-02-16T03:02:26.959Z,101385.87
2018-02-16T03:04:54.542Z,101385.52
2018-02-16T03:07:22.119Z,101390.72
2018-02-16T03:09:49.698Z,101395.46
2018-02-16T03:12:17.274Z,101395.91
2018-02-16T03:14:45.778Z,101405.66
2018-02-16T03:17:14.174Z,101409.23
2018-02-16T03:19:41.754Z,101415.23
2018-02-16T03:22:10.235Z,101418.14
2018-02-16T03:24:38.791Z,101422.17
2018-02-16T03:27:06.372Z,101433.02
2018-02-16T03:29:33.950Z,101423.09
2018-02-16T03:32:02.290Z,101424.02
2018-02-16T03:34:30.665Z,101424.89
2018-02-16T03:36:58.288Z,101427.26
2018-02-16T03:39:25.862Z,101434.88
2018-02-16T03:41:54.338Z,101435.10
2018-02-16T03:44:22.609Z,101434.25
2018-02-16T03:46:50.191Z,101436.52
2018-02-16T03:49:18.545Z,101431.41
2018-02-16T03:51:46.906Z,101438.04
2018-02-16T03:54:14.518Z,101437.20
2018-02-16T03:56:42.951Z,101443.08
2018-02-16T03:59:10.528Z,101442.43
2018-02-16T04:01:38.139Z,101444.55
2018-02-16T04:04:06.654Z,101455.91
2018-02-16T04:06:34.298Z,101451.58
2018-02-16T04:09:01.911Z,101456.77
2018-02-16T04:11:29.486Z,101460.20
2018-02-16T04:13:57.060Z,101456.69
2018-02-16T04:16:25.339Z,101453.75
2018-02-16T04:18:53.743Z,101466.98
2018-02-16T04:21:22.018Z,101464.11
2018-02-16T04:23:50.419Z,101463.54
2018-02-16T04:26:18.707Z,101462.95
2018-02-16T04:28:47.150Z,101465.17
2018-02-16T04:31:14.730Z,101466.84
2018-02-16T04:33:42.346Z,101471.08
2018-02-16T04:36:09.925Z,101466.61
2018-02-16T04:38:37.506Z,101471.66
2018-02-16T04:41:05.803Z,101472.86
2018-02-16T04:43:34.174Z,101478.19
2018-02-16T04:46:01.804Z,101476.38
2018-02-16T04:48:30.158Z,101483.55
2018-02-16T04:50:57.800Z,101482.72
2018-02-16T04:53:26.327Z,101484.52
2018-02-16T04:55:54.760Z,101494.05
2018-02-16T04:58:22.338Z,101496.34
2018-02-16T05:00:50.749Z,101498.09
2018-02-16T05:03:19.241Z,101507.13
2018-02-16T05:05:47.610Z,101509.84
2018-02-16T05:08:15.971Z,101510.77
2018-02-16T05:10:44.339Z,101513.75
2018-02-16T05:13:12.042Z,101517.02
2018-02-16T05:15:40.699Z,101510.27
2018-02-16T05:18:08.309Z,101509.63
2018-02-16T05:20:35.886Z,101505.40
2018-02-16T05:23:03.499Z,101504.87
2018-02-16T05:25:31.078Z,101510.64
2018-02-16T05:27:59.502Z,101521.04
2018-02-16T05:30:27.878Z,101525.02
2018-02-16T05:32:55.496Z,101527.52
2018-02-16T05:35:23.153Z,101535.05
2018-02-16T05:37:50.768Z,101536.35
2018-02-16T05:40:19.195Z,101539.57
2018-02-16T05:42:47.610Z,101551.37
2018-02-16T05:45:16.194Z,101550.88
2018-02-16T05:47:43.819Z,101551.31
2018-02-16T05:50:11.458Z,101562.27
2018-02-16T05:52:39.040Z,101561.77
2018-02-16T05:55:06.620Z,101560.99
2018-02-16T05:57:34.204Z,101563.64
2018-02-16T06:00:02.489Z,101568.17
2018-02-16T06:02:30.070Z,101569.11
2018-02-16T06:04:57.730Z,101571.45
2018-02-16T06:07:25.307Z,101575.25
2018-02-16T06:09:52.994Z,101573.48
2018-02-16T06:12:21.515Z,101567.64
2018-02-16T06:14:49.939Z,101576.30
2018-02-16T06:17:17.523Z,101569.78
2018-02-16T06:19:45.098Z,101578.69
2018-02-16T06:22:12.723Z,101577.09
2018-02-16T06:24:40.308Z,101587.14
2018-02-16T06:27:07.915Z,101584.88
2018-02-16T06:29:35.489Z,101589.23
2018-02-16T06:32:03.074Z,101595.19
2018-02-16T06:34:30.687Z,101596.64
2018-02-16T06:36:58.274Z,101599.05
2018-02-16T06:39:25.959Z,101603.25
2018-02-16T06:41:53.541Z,101605.65
2018-02-16T06:44:21.158Z,101605.98
2018-02-16T06:46:48.736Z,101611.47
2018-02-16T06:49:16.355Z,101609.34
2018-02-16T06:51:44.177Z,101614.92
2018-02-16T06:54:11.801Z,101616.82
2018-02-16T06:56:39.383Z,101615.78
2018-02-16T06:59:06.967Z,101622.55
2018-02-16T07:01:34.590Z,101626.42
2018-02-16T07:04:02.170Z,101621.77
2018-02-16T07:06:29.791Z,101627.14
2018-02-16T07:08:57.533Z,101622.92
2018-02-16T07:11:26.043Z,101622.12
2018-02-16T07:13:54.234Z,101614.86
2018-02-16T07:16:21.851Z,101627.45
2018-02-16T07:18:49.428Z,101629.52
2018-02-16T07:21:17.028Z,101638.72
2018-02-16T07:23:44.652Z,101642.73
2018-02-16T07:26:12.279Z,101652.83
2018-02-16T07:28:39.919Z,101665.27
2018-02-16T07:31:07.499Z,101664.19
2018-02-16T07:33:35.619Z,101673.02
2018-02-16T07:36:03.245Z,101674.74
2018-02-16T07:38:31.416Z,101675.86
2018-02-16T07:40:59.154Z,101681.83
2018-02-16T07:43:28.969Z,101688.98
2018-02-16T07:45:57.724Z,101681.89
2018-02-16T07:48:25.982Z,101686.67
2018-02-16T07:50:55.297Z,101691.77
2018-02-16T07:53:22.974Z,101698.11
2018-02-16T07:55:50.556Z,101694.20
2018-02-16T07:58:18.208Z,101701.45
2018-02-16T08:00:45.859Z,101700.09
2018-02-16T08:03:13.535Z,101709.45
2018-02-16T08:05:41.155Z,101705.23
2018-02-16T08:08:09.579Z,101708.02
2018-02-16T08:10:37.930Z,101706.88
2018-02-16T08:13:05.630Z,101710.44
2018-02-16T08:15:34.661Z,101722.14
2018-02-16T08:18:03.508Z,101724.95
2018-02-16T08:20:31.870Z,101725.69
2018-02-16T08:23:00.025Z,101731.59
2018-02-16T08:25:28.079Z,101728.39
2018-02-16T08:27:56.271Z,101723.01
2018-02-16T08:30:23.942Z,101720.89
2018-02-16T08:32:52.329Z,101719.91
2018-02-16T08:35:19.912Z,101728.89
2018-02-16T08:37:47.488Z,101739.32
2018-02-16T08:40:16.032Z,101732.06
2018-02-16T08:42:43.616Z,101737.42
2018-02-16T08:45:11.238Z,101730.59
2018-02-16T08:47:39.715Z,101731.75
2018-02-16T08:50:07.298Z,101744.06
2018-02-16T08:52:34.883Z,101742.61
2018-02-16T08:55:02.520Z,101740.23
2018-02-16T08:57:30.911Z,101748.84
2018-02-16T08:59:59.365Z,101752.25
2018-02-16T09:02:27.722Z,101746.05
2018-02-16T09:04:55.352Z,101751.87
2018-02-16T09:07:22.932Z,101744.89
2018-02-16T09:09:50.510Z,101750.83
2018-02-16T09:12:18.157Z,101744.36
2018-02-16T09:14:45.775Z,101748.34
2018-02-16T09:17:13.394Z,101753.28
2018-02-16T09:19:41.890Z,101755.25
2018-02-16T09:22:09.510Z,101759.36
2018-02-16T09:24:37.100Z,101765.69
2018-02-16T09:27:05.586Z,101772.96
2018-02-16T09:29:33.233Z,101763.50
2018-02-16T09:32:00.816Z,101768.48
2018-02-16T09:34:29.398Z,101772.02
2018-02-16T09:36:57.663Z,101774.12
2018-02-16T09:39:26.608Z,101776.07
2018-02-16T09:41:54.191Z,101782.23
2018-02-16T09:44:21.782Z,101781.30
2018-02-16T09:46:49.369Z,101787.48
2018-02-16T09:49:16.959Z,101779.06
2018-02-16T09:51:44.536Z,101784.45
2018-02-16T09:54:12.111Z,101783.16
2018-02-16T09:56:39.683Z,101784.98
2018-02-16T09:59:07.256Z,101787.94
2018-02-16T10:01:34.835Z,101786.64
2018-02-16T10:04:02.412Z,101785.66
2018-02-16T10:06:30.022Z,101786.60
2018-02-16T10:08:57.600Z,101789.80
2018-02-16T10:11:25.174Z,101789.88
2018-02-16T10:13:53.372Z,101789.23
2018-02-16T10:16:21.030Z,101796.13
2018-02-16T10:18:48.594Z,101802.83
2018-02-16T10:21:16.210Z,101803.76
2018-02-16T10:23:43.866Z,101807.22
2018-02-16T10:26:11.474Z,101796.70
2018-02-16T10:28:39.138Z,101802.45
2018-02-16T10:31:06.710Z,101814.54
2018-02-16T10:33:34.326Z,101816.83
2018-02-16T10:36:01.972Z,101812.56
2018-02-16T10:38:30.491Z,101804.50
2018-02-16T10:40:58.071Z,101808.78
2018-02-16T10:43:25.692Z,101805.42
2018-02-16T10:45:53.266Z,101808.66
2018-02-16T10:48:20.846Z,101806.17
2018-02-16T10:50:48.436Z,101810.69
2018-02-16T10:53:16.007Z,101812.60
2018-02-16T10:55:43.609Z,101813.52
2018-02-16T10:58:11.202Z,101815.80
2018-02-16T11:00:44.502Z,101815.45
2018-02-16T11:03:17.786Z,101819.33
2018-02-16T11:05:53.846Z,101826.45
2018-02-16T11:08:27.243Z,101828.88
2018-02-16T11:10:54.878Z,101822.88
2018-02-16T11:13:22.454Z,101817.73
2018-02-16T11:15:50.030Z,101820.92
2018-02-16T11:18:17.664Z,101825.92
2018-02-16T11:20:45.306Z,101833.78
2018-02-16T11:23:12.882Z,101821.34
2018-02-16T11:25:40.466Z,101827.06
2018-02-16T11:28:08.937Z,101827.81
2018-02-16T11:30:37.401Z,101823.05
2018-02-16T11:33:04.981Z,101822.29
2018-02-16T11:35:32.557Z,101834.36
2018-02-16T11:38:00.144Z,101834.05
2018-02-16T11:40:27.716Z,101842.58
2018-02-16T11:42:55.296Z,101827.47
2018-02-16T11:45:23.664Z,101831.61
2018-02-16T11:47:51.238Z,101835.88
2018-02-16T11:50:18.812Z,101837.55
2018-02-16T11:52:46.493Z,101832.82
2018-02-16T11:55:14.135Z,101835.80
2018-02-16T11:57:41.708Z,101833.67
2018-02-16T12:00:09.314Z,101847.89
2018-02-16T12:02:36.890Z,101847.74
2018-02-16T12:05:04.488Z,101836.13
2018-02-16T12:07:32.062Z,101841.71
2018-02-16T12:09:59.640Z,101842.56
2018-02-16T12:12:27.218Z,101840.76
2018-02-16T12:14:54.800Z,101843.21
2018-02-16T12:17:22.381Z,101842.52
2018-02-16T12:19:49.961Z,101843.52
2018-02-16T12:22:17.598Z,101845.71
2018-02-16T12:24:46.119Z,101848.69
2018-02-16T12:27:13.691Z,101847.16
2018-02-16T12:29:41.266Z,101851.44
2018-02-16T12:32:08.847Z,101838.88
2018-02-16T12:34:36.425Z,101852.50
2018-02-16T12:37:04.031Z,101847.81
2018-02-16T12:39:31.616Z,101850.20
2018-02-16T12:41:59.204Z,101866.23
2018-02-16T12:44:26.823Z,101867.59
2018-02-16T12:46:54.403Z,101871.59
2018-02-16T12:49:21.978Z,101869.08
2018-02-16T12:51:49.558Z,101872.41
2018-02-16T12:54:17.135Z,101877.00
2018-02-16T12:56:44.710Z,101876.97
2018-02-16T12:59:12.318Z,101878.67
2018-02-16T13:01:39.898Z,101882.45
2018-02-16T13:04:07.473Z,101883.21
2018-02-16T13:06:35.999Z,101889.05
2018-02-16T13:09:03.618Z,101893.67
2018-02-16T13:11:31.194Z,101888.56
2018-02-16T13:13:58.774Z,101896.06
2018-02-16T13:16:26.355Z,101884.66
2018-02-16T13:18:53.926Z,101884.16
2018-02-16T13:21:21.544Z,101876.75
2018-02-16T13:23:49.119Z,101884.59
2018-02-16T13:26:16.723Z,101880.35
2018-02-16T13:28:45.097Z,101879.96
2018-02-16T13:31:12.723Z,101885.69
2018-02-16T13:33:40.295Z,101880.41
2018-02-16T13:36:07.883Z,101882.82
2018-02-16T13:38:35.456Z,101885.20
2018-02-16T13:41:03.031Z,101891.09
2018-02-16T13:43:30.602Z,101887.27
2018-02-16T13:45:58.179Z,101892.90
2018-02-16T13:48:25.806Z,101900.58
2018-02-16T13:50:53.381Z,101897.37
2018-02-16T13:53:20.975Z,101896.44
2018-02-16T13:55:48.562Z,101896.02
2018-02-16T13:58:17.050Z,101900.38
2018-02-16T14:00:44.630Z,101902.30
2018-02-16T14:03:12.211Z,101890.34
2018-02-16T14:05:39.786Z,101906.11
2018-02-16T14:08:07.359Z,101903.45
2018-02-16T14:10:34.975Z,101902.10
2018-02-16T14:13:02.551Z,101906.55
2018-02-16T14:15:30.127Z,101909.11
2018-02-16T14:17:57.700Z,101903.73
2018-02-16T14:20:25.273Z,101902.65
2018-02-16T14:22:52.846Z,101904.11
2018-02-16T14:25:20.419Z,101908.66
2018-02-16T14:27:47.995Z,101908.69
2018-02-16T14:30:15.587Z,101915.55
2018-02-16T14:32:43.162Z,101914.91
2018-02-16T14:35:10.730Z,101911.33
2018-02-16T14:37:39.202Z,101924.94
2018-02-16T14:40:06.830Z,101913.60
2018-02-16T14:42:35.318Z,101915.19
2018-02-16T14:45:03.549Z,101923.52
2018-02-16T14:47:31.130Z,101919.15
2018-02-16T14:49:59.403Z,101925.75
2018-02-16T14:52:26.983Z,101925.59
2018-02-16T14:54:54.630Z,101924.21
2018-02-16T14:57:22.264Z,101928.39
2018-02-16T14:59:49.846Z,101931.36
2018-02-16T15:02:17.421Z,101933.61
2018-02-16T15:04:45.002Z,101937.36
2018-02-16T15:07:13.415Z,101937.61
2018-02-16T15:09:41.779Z,101933.17
2018-02-16T15:12:10.240Z,101938.73
2018-02-16T15:14:37.814Z,101940.28
2018-02-16T15:17:06.187Z,101948.55
2018-02-16T15:19:34.643Z,101947.50
2018-02-16T15:22:03.023Z,101944.34
2018-02-16T15:24:31.421Z,101946.35
2018-02-16T15:26:59.938Z,101944.61
2018-02-16T15:29:27.509Z,101948.00
2018-02-16T15:31:55.131Z,101954.73
2018-02-16T15:34:23.652Z,101955.24
2018-02-16T15:36:51.250Z,101952.47
2018-02-16T15:39:19.639Z,101954.96
2018-02-16T15:41:47.219Z,101953.38
2018-02-16T15:44:15.719Z,101960.62
2018-02-16T15:46:43.295Z,101965.52
2018-02-16T15:49:10.884Z,101971.26
2018-02-16T15:51:39.483Z,101969.48
2018-02-16T15:54:07.095Z,101972.52
2018-02-16T15:56:34.674Z,101981.71
2018-02-16T15:59:02.287Z,101984.19
2018-02-16T16:01:29.864Z,101986.86
2018-02-16T16:03:57.452Z,101984.41
2018-02-16T16:06:29.524Z,101983.48
2018-02-16T16:11:46.103Z,101988.57
2018-02-16T16:14:13.650Z,101994.46
2018-02-16T16:16:42.064Z,102002.33
2018-02-16T16:19:09.615Z,102005.39
2018-02-16T16:21:37.162Z,102007.15
2018-02-16T16:24:04.710Z,102004.92
2018-02-16T16:26:33.098Z,102011.02
2018-02-16T16:29:00.686Z,102015.20
2018-02-16T16:31:28.266Z,102018.63
2018-02-16T16:33:55.856Z,102018.43
2018-02-16T16:36:24.302Z,102018.82
2018-02-16T16:38:51.894Z,102025.63
2018-02-16T16:41:20.344Z,102025.75
2018-02-16T16:43:47.935Z,102033.41
2018-02-16T16:46:16.375Z,102033.73
2018-02-16T16:48:44.907Z,102032.92
2018-02-16T16:51:12.604Z,102042.23
2018-02-16T16:53:40.193Z,102037.94
2018-02-16T16:56:07.738Z,102048.34
2018-02-16T16:58:35.278Z,102057.12
2018-02-16T17:01:03.567Z,102060.25
2018-02-16T17:03:31.847Z,102067.80
2018-02-16T17:06:00.238Z,102072.28
2018-02-16T17:08:28.554Z,102074.32
2018-02-16T17:10:56.936Z,102074.88
2018-02-16T17:13:25.266Z,102079.30
2018-02-16T17:15:53.187Z,102082.03
2018-02-16T17:18:21.522Z,102081.84
2018-02-16T17:20:50.034Z,102079.09
2018-02-16T17:23:18.290Z,102077.73
2018-02-16T17:25:46.630Z,102079.70
2018-02-16T17:28:14.177Z,102087.56
2018-02-16T17:30:41.724Z,102086.08
2018-02-16T17:33:09.286Z,102090.02
2018-02-16T17:35:36.863Z,102100.64
2018-02-16T17:38:05.318Z,102090.81
2018-02-16T17:40:32.869Z,102092.28
2018-02-16T17:43:00.418Z,102091.63
2018-02-16T17:45:27.967Z,102090.96
2018-02-16T17:50:24.187Z,102094.16
2018-02-16T17:52:51.743Z,102096.03
2018-02-16T17:55:19.292Z,102092.16
2018-02-16T17:57:47.838Z,102092.36
2018-02-16T18:00:17.807Z,102095.09
2018-02-16T18:02:45.425Z,102092.56
2018-02-16T18:05:12.973Z,102096.78
2018-02-16T18:07:40.562Z,102097.55
2018-02-16T18:10:08.114Z,102098.03
2018-02-16T18:12:35.685Z,102101.57
2018-02-16T18:15:03.231Z,102097.30
2018-02-16T18:17:30.883Z,102099.08
2018-02-16T18:19:59.051Z,102100.65
2018-02-16T18:22:26.599Z,102103.61
2018-02-16T18:24:54.142Z,102112.25
2018-02-16T18:27:21.698Z,102108.03
2018-02-16T18:29:49.254Z,102107.94
2018-02-16T18:32:16.843Z,102110.22
2018-02-16T18:34:44.422Z,102109.03
2018-02-16T18:37:11.987Z,102113.39
2018-02-16T18:39:39.541Z,102116.64
2018-02-16T18:42:07.094Z,102116.02
2018-02-16T18:44:35.464Z,102116.45
2018-02-16T18:47:03.006Z,102117.84
2018-02-16T18:49:30.550Z,102114.56
2018-02-16T18:51:58.140Z,102123.48
2018-02-16T18:54:25.678Z,102124.42
2018-02-16T18:56:54.039Z,102117.23
2018-02-16T18:59:22.310Z,102131.23
2018-02-16T19:01:50.666Z,102127.48
2018-02-16T19:04:18.998Z,102133.76
2018-02-16T19:06:47.138Z,102135.95
2018-02-16T19:09:14.695Z,102133.88
2018-02-16T19:11:43.139Z,102139.09
2018-02-16T19:14:11.395Z,102141.63
2018-02-16T19:16:39.913Z,102138.66
2018-02-16T19:19:08.286Z,102139.91
2018-02-16T19:21:36.649Z,102139.20
2018-02-16T19:24:04.230Z,102134.19
2018-02-16T19:26:31.779Z,102124.22
2018-02-16T19:28:59.369Z,102125.86
2018-02-16T19:31:27.839Z,102132.63
2018-02-16T19:33:56.211Z,102128.84
2018-02-16T19:36:24.555Z,102130.23
2018-02-16T19:38:52.107Z,102131.34
2018-02-16T19:41:20.625Z,102131.49
2018-02-16T19:43:48.903Z,102130.23
2018-02-16T19:46:17.307Z,102131.84
2018-02-16T19:48:45.560Z,102132.36
2018-02-16T19:51:13.146Z,102127.70
2018-02-16T19:53:40.694Z,102134.16
2018-02-16T19:56:09.087Z,102138.42
2018-02-16T19:58:36.630Z,102131.95
2018-02-16T20:01:05.019Z,102135.10
2018-02-16T20:03:32.571Z,102129.58
2018-02-16T20:06:00.118Z,102126.67
2018-02-16T20:08:28.459Z,102131.94
2018-02-16T20:10:56.010Z,102133.06
2018-02-16T20:13:23.558Z,102137.78
2018-02-16T20:15:51.178Z,102131.14
2018-02-16T20:18:19.091Z,102132.04
2018-02-16T20:20:47.542Z,102124.89
2018-02-16T20:23:15.095Z,102123.73
2018-02-16T20:25:42.682Z,102131.53
2018-02-16T20:28:10.235Z,102135.09
2018-02-16T20:30:38.769Z,102139.02
2018-02-16T20:33:07.102Z,102143.01
2018-02-16T20:35:34.650Z,102144.33
2018-02-16T20:38:02.252Z,102147.34
2018-02-16T20:40:29.826Z,102139.20
2018-02-16T20:42:57.388Z,102138.19
2018-02-16T20:45:24.947Z,102132.93
2018-02-16T20:47:52.505Z,102134.84
2018-02-16T20:50:21.018Z,102133.89
2018-02-16T20:52:48.579Z,102142.15
2018-02-16T20:55:16.127Z,102146.97
2018-02-16T20:57:43.675Z,102148.86
2018-02-16T21:00:11.230Z,102156.08
2018-02-16T21:02:38.826Z,102157.77
2018-02-16T21:05:06.431Z,102162.50
2018-02-16T21:07:33.979Z,102152.61
2018-02-16T21:10:01.538Z,102155.50
2018-02-16T21:12:29.091Z,102152.49
2018-02-16T21:14:56.647Z,102153.02
2018-02-16T21:17:24.202Z,102158.34
2018-02-16T21:19:51.747Z,102155.68
2018-02-16T21:22:19.297Z,102163.30
2018-02-16T21:24:47.543Z,102161.66
2018-02-16T21:27:15.094Z,102165.50
2018-02-16T21:29:42.650Z,102171.20
2018-02-16T21:32:10.250Z,102171.69
2018-02-16T21:34:38.614Z,102180.28
2018-02-16T21:37:07.010Z,102182.83
2018-02-16T21:39:34.562Z,102176.41
2018-02-16T21:42:02.162Z,102181.25
2018-02-16T21:44:29.718Z,102181.76
2018-02-16T21:46:58.207Z,102186.37
2018-02-16T21:49:25.758Z,102184.73
2018-02-16T21:51:53.311Z,102180.31
2018-02-16T21:54:20.901Z,102182.51
2018-02-16T21:56:48.466Z,102187.69
2018-02-16T21:59:16.766Z,102187.61
2018-02-16T22:01:44.321Z,102194.56
2018-02-16T22:04:11.918Z,102187.28
2018-02-16T22:06:39.496Z,102186.48
2018-02-16T22:09:07.042Z,102182.64
2018-02-16T22:11:34.595Z,102190.00
2018-02-16T22:14:02.149Z,102184.81
2018-02-16T22:16:29.705Z,102185.59
2018-02-16T22:18:57.258Z,102184.30
2018-02-16T22:21:24.831Z,102183.13
2018-02-16T22:23:52.395Z,102175.80
2018-02-16T22:26:19.994Z,102173.30
2018-02-16T22:28:47.545Z,102173.80
2018-02-16T22:31:15.109Z,102181.12
2018-02-16T22:33:42.710Z,102179.09
2018-02-16T22:36:11.123Z,102179.06
2018-02-16T22:38:38.682Z,102181.78
2018-02-16T22:41:07.090Z,102185.58
2018-02-16T22:43:34.645Z,102178.61
2018-02-16T22:46:03.071Z,102179.02
2018-02-16T22:48:30.624Z,102181.10
2018-02-16T22:50:59.136Z,102178.55
2018-02-16T22:53:27.448Z,102182.93
2018-02-16T22:55:55.815Z,102174.80
2018-02-16T22:58:24.290Z,102173.54
2018-02-16T23:00:51.885Z,102178.61
2018-02-16T23:03:19.443Z,102173.95
2018-02-16T23:05:47.989Z,102178.63
2018-02-16T23:08:16.261Z,102173.89
2018-02-16T23:10:43.869Z,102175.69
2018-02-16T23:13:12.218Z,102185.98
2018-02-16T23:15:39.794Z,102183.03
2018-02-16T23:18:07.855Z,102177.97
2018-02-16T23:20:35.420Z,102180.13
2018-02-16T23:23:03.926Z,102180.97
2018-02-16T23:25:31.473Z,102175.43
2018-02-16T23:27:59.926Z,102179.23
2018-02-16T23:30:27.487Z,102173.72
2018-02-16T23:32:55.078Z,102169.44
2018-02-16T23:35:22.659Z,102169.89
2018-02-16T23:37:50.250Z,102168.24
2018-02-16T23:40:18.079Z,102173.05
2018-02-16T23:42:46.496Z,102172.20
2018-02-16T23:45:14.064Z,102179.56
2018-02-16T23:47:41.630Z,102169.32
2018-02-16T23:50:09.232Z,102177.41
2018-02-16T23:52:36.791Z,102170.54
2018-02-16T23:55:04.446Z,102166.30
2018-02-16T23:57:32.011Z,102168.07
2018-02-16T23:59:59.608Z,102175.42
